Time;durP1;ratioP1;P1;durP2;ratioP2;P2;SDS_P1;SDS_P2;PMS_P1;PMS_P2;Temp;Humidity;BMP_temperature;BMP_pressure;BME280_temperature;BME280_humidity;BME280_pressure;Samples;Min_cycle;Max_cycle;Signal;HPM_P1;HPM_P2
2022/09/24 00:01:31;;;;;;;10.38;3.53;;;18.90;65.50;;;;;;4972051;28;20026;-69
2022/09/24 00:03:59;;;;;;;8.13;3.00;;;18.80;65.70;;;;;;4972083;28;20030;-68
2022/09/24 00:06:26;;;;;;;9.90;3.58;;;18.80;65.50;;;;;;4971917;28;20030;-68
2022/09/24 00:08:54;;;;;;;6.50;2.97;;;18.90;65.80;;;;;;4972338;28;20089;-69
2022/09/24 00:11:21;;;;;;;8.77;3.38;;;18.90;65.50;;;;;;4971997;28;20031;-67
2022/09/24 00:13:48;;;;;;;10.75;3.28;;;18.90;65.70;;;;;;4972422;28;20098;-68
2022/09/24 00:16:17;;;;;;;10.48;3.30;;;18.90;65.80;;;;;;4954678;28;20038;-69
2022/09/24 00:18:43;;;;;;;8.02;3.45;;;18.90;65.80;;;;;;4972248;28;20030;-69
2022/09/24 00:21:24;;;;;;;10.77;3.13;;;18.90;65.80;;;;;;4972285;28;20223;-68
2022/09/24 00:23:52;;;;;;;10.52;3.20;;;18.80;65.80;;;;;;4972051;28;20022;-68
2022/09/24 00:29:04;;;;;;;6.82;2.65;;;18.70;66.10;;;;;;4972527;28;20507;-68
2022/09/24 00:31:30;;;;;;;6.97;2.80;;;18.80;66.00;;;;;;4972074;28;20030;-70
2022/09/24 00:33:57;;;;;;;6.30;2.92;;;18.80;66.10;;;;;;4956999;28;20038;-69
2022/09/24 00:36:23;;;;;;;8.98;2.70;;;18.80;66.80;;;;;;4975750;28;20480;-68
2022/09/24 00:38:50;;;;;;;5.50;2.45;;;18.80;66.00;;;;;;4975538;28;20113;-69
2022/09/24 00:41:19;;;;;;;6.47;2.45;;;18.90;66.10;;;;;;4975451;28;20071;-68
2022/09/24 00:43:47;;;;;;;6.25;2.60;;;18.90;66.10;;;;;;4975270;28;20034;-69
2022/09/24 00:46:27;;;;;;;6.30;2.97;;;18.80;66.40;;;;;;4975461;28;20050;-69
2022/09/24 00:49:00;;;;;;;8.82;2.72;;;18.80;66.30;;;;;;4975551;28;20112;-68
2022/09/24 00:51:28;;;;;;;6.43;2.03;;;18.80;66.10;;;;;;4975340;28;20388;-68
2022/09/24 00:53:59;;;;;;;7.93;2.40;;;18.70;66.00;;;;;;4975231;28;20038;-69
2022/09/24 00:56:25;;;;;;;6.68;2.42;;;18.70;66.30;;;;;;4975121;28;20444;-68
2022/09/24 00:58:55;;;;;;;5.53;2.22;;;18.60;66.50;;;;;;4975042;28;20507;-71
2022/09/24 01:01:22;;;;;;;7.78;2.38;;;18.60;66.70;;;;;;4975106;28;20038;-68
2022/09/24 01:03:51;;;;;;;6.65;2.30;;;18.60;66.50;;;;;;4975552;28;20026;-69
2022/09/24 01:06:17;;;;;;;5.10;2.28;;;18.60;66.80;;;;;;4975081;28;20030;-69
2022/09/24 01:08:44;;;;;;;7.20;2.33;;;18.60;66.70;;;;;;4975092;28;20495;-72
2022/09/24 01:11:19;;;;;;;8.38;2.70;;;18.60;66.70;;;;;;4957365;28;20031;-68
2022/09/24 01:14:03;;;;;;;5.78;2.00;;;18.50;67.00;;;;;;4974860;28;20073;-68
2022/09/24 01:16:35;;;;;;;;;;;18.60;67.20;;;;;;4975357;28;20042;-68
2022/09/24 01:19:09;;;;;;;7.68;2.58;;;18.60;67.60;;;;;;4974974;28;19912;-69
2022/09/24 01:21:49;;;;;;;7.93;2.05;;;18.60;67.00;;;;;;4975120;28;20042;-69
2022/09/24 01:24:30;;;;;;;6.18;2.38;;;18.50;66.90;;;;;;4958235;28;20037;-68
2022/09/24 01:27:43;;;;;;;13.50;3.15;;;18.50;67.40;;;;;;4975308;28;20076;-72
2022/09/24 01:30:11;;;;;;;7.63;2.25;;;18.40;67.90;;;;;;4934083;29;20076;-72
2022/09/24 01:32:59;;;;;;;6.00;2.30;;;18.40;67.50;;;;;;4967534;28;20035;-69
2022/09/24 01:35:34;;;;;;;8.20;2.95;;;18.40;67.80;;;;;;4974758;28;20034;-68
2022/09/24 01:38:15;;;;;;;7.57;2.90;;;18.40;68.30;;;;;;4974758;28;20027;-69
2022/09/24 01:40:44;;;;;;;6.60;2.80;;;18.40;68.50;;;;;;4974749;28;20071;-68
2022/09/24 01:43:13;;;;;;;8.20;2.97;;;18.30;68.70;;;;;;4974552;28;20501;-71
2022/09/24 01:45:39;;;;;;;9.40;3.35;;;18.30;68.80;;;;;;4973315;28;20429;-70
2022/09/24 01:48:12;;;;;;;7.97;3.00;;;18.30;68.10;;;;;;4974275;28;20098;-70
2022/09/24 01:51:05;;;;;;;9.57;2.95;;;18.30;68.30;;;;;;4974204;28;20029;-70
2022/09/24 01:53:46;;;;;;;10.13;3.53;;;18.40;68.70;;;;;;4939647;28;20122;-69
2022/09/24 01:56:46;;;;;;;9.57;3.75;;;18.40;68.20;;;;;;4976941;28;20062;-74
2022/09/24 01:59:18;;;;;;;9.90;4.10;;;18.40;68.40;;;;;;4975490;28;20510;-69
2022/09/24 02:01:49;;;;;;;12.05;4.97;;;18.40;68.40;;;;;;4974074;28;20041;-70
2022/09/24 02:04:19;;;;;;;10.82;4.93;;;18.30;68.50;;;;;;4974120;28;20050;-72
2022/09/24 02:07:03;;;;;;;12.38;5.45;;;18.30;68.50;;;;;;4974826;28;20098;-75
2022/09/24 02:09:28;;;;;;;;;;;18.30;68.90;;;;;;4941247;28;20050;-75
2022/09/24 02:11:57;;;;;;;11.05;5.43;;;18.30;69.30;;;;;;4973716;28;19910;-70
2022/09/24 02:14:25;;;;;;;12.23;5.95;;;18.20;68.80;;;;;;4972768;28;20189;-68
2022/09/24 02:16:51;;;;;;;15.48;5.75;;;18.20;69.30;;;;;;4973776;28;20070;-68
2022/09/24 02:19:25;;;;;;;11.52;5.45;;;18.20;69.30;;;;;;4973638;28;20433;-70
2022/09/24 02:21:51;;;;;;;;;;;18.20;69.10;;;;;;4973790;28;20109;-69
2022/09/24 02:24:27;;;;;;;11.80;5.13;;;18.30;70.30;;;;;;4973591;28;19977;-68
2022/09/24 02:26:54;;;;;;;13.52;5.88;;;18.30;69.20;;;;;;4956273;28;20503;-71
2022/09/24 02:29:20;;;;;;;12.82;5.57;;;18.30;69.10;;;;;;4956172;28;20031;-68
2022/09/24 02:31:51;;;;;;;10.00;5.40;;;18.30;69.20;;;;;;4956265;28;20027;-69
2022/09/24 02:34:28;;;;;;;9.27;4.80;;;18.30;69.20;;;;;;4973790;28;20468;-73
2022/09/24 02:37:04;;;;;;;12.80;5.30;;;18.30;69.00;;;;;;4973758;28;20062;-69
2022/09/24 02:39:29;;;;;;;10.32;4.90;;;18.30;69.70;;;;;;4973263;28;20035;-69
2022/09/24 02:41:57;;;;;;;8.82;4.43;;;18.30;69.40;;;;;;4973188;28;20034;-69
2022/09/24 02:44:23;;;;;;;9.90;4.63;;;18.20;69.50;;;;;;4955606;28;20031;-70
2022/09/24 02:46:49;;;;;;;10.23;4.80;;;18.30;69.70;;;;;;4973148;28;20029;-68
2022/09/24 02:49:16;;;;;;;11.30;4.20;;;18.30;69.70;;;;;;4973314;28;20026;-73
2022/09/24 02:51:42;;;;;;;7.93;3.88;;;18.30;69.50;;;;;;4973527;28;20050;-69
2022/09/24 02:54:09;;;;;;;9.15;3.75;;;18.30;69.50;;;;;;4973136;28;20560;-68
2022/09/24 02:56:35;;;;;;;7.93;3.60;;;18.30;69.40;;;;;;4972792;28;20365;-69
2022/09/24 02:59:01;;;;;;;10.88;3.83;;;18.30;69.20;;;;;;4973519;28;20023;-68
2022/09/24 03:01:28;;;;;;;7.88;3.72;;;18.30;69.40;;;;;;4973115;28;20485;-69
2022/09/24 03:03:56;;;;;;;6.63;3.35;;;18.30;69.40;;;;;;4973172;28;20113;-73
2022/09/24 03:06:22;;;;;;;7.80;3.47;;;18.40;69.40;;;;;;4973035;28;20022;-69
2022/09/24 03:08:49;;;;;;;5.85;2.75;;;18.30;69.50;;;;;;4972774;28;20058;-70
2022/09/24 03:11:15;;;;;;;6.65;2.80;;;18.40;69.90;;;;;;4973641;28;20066;-73
2022/09/24 03:13:41;;;;;;;6.40;2.92;;;18.40;69.60;;;;;;4973803;28;20023;-69
2022/09/24 03:16:07;;;;;;;7.05;2.70;;;18.40;69.50;;;;;;4974152;28;20122;-68
2022/09/24 03:18:33;;;;;;;6.80;2.90;;;18.40;69.40;;;;;;4974830;28;20027;-67
2022/09/24 03:21:02;;;;;;;6.45;2.58;;;18.40;69.30;;;;;;4974409;28;20030;-68
2022/09/24 03:23:28;;;;;;;7.55;2.78;;;18.30;69.40;;;;;;4975455;28;20078;-69
2022/09/24 03:25:54;;;;;;;7.45;2.63;;;18.30;69.30;;;;;;4977624;28;20511;-68
2022/09/24 03:28:21;;;;;;;5.65;2.28;;;18.40;69.40;;;;;;4977664;28;20230;-68
2022/09/24 03:30:59;;;;;;;6.40;2.28;;;18.30;69.40;;;;;;4976939;28;20388;-73
2022/09/24 03:33:35;;;;;;;5.97;2.42;;;18.30;69.80;;;;;;4972709;28;20023;-72
2022/09/24 03:36:06;;;;;;;6.70;2.53;;;18.40;69.70;;;;;;4972490;28;20064;-76
2022/09/24 03:38:33;;;;;;;5.32;3.00;;;18.40;70.00;;;;;;4972866;28;20026;-68
2022/09/24 03:41:06;;;;;;;9.38;3.63;;;18.40;69.20;;;;;;4973116;28;20030;-73
2022/09/24 03:43:32;;;;;;;5.80;3.08;;;18.40;69.30;;;;;;4973178;28;20069;-73
2022/09/24 03:45:59;;;;;;;7.75;3.00;;;18.40;69.40;;;;;;4973223;28;20039;-80
2022/09/24 03:48:25;;;;;;;8.90;3.08;;;18.40;69.40;;;;;;4972863;28;20478;-72
2022/09/24 03:50:54;;;;;;;9.70;3.15;;;18.40;69.50;;;;;;4973150;28;20026;-76
2022/09/24 03:53:20;;;;;;;7.70;3.80;;;18.50;69.40;;;;;;4972643;28;20038;-72
2022/09/24 03:55:51;;;;;;;6.82;3.80;;;18.50;69.30;;;;;;4972560;28;20027;-70
2022/09/24 03:58:17;;;;;;;7.38;3.65;;;18.50;69.20;;;;;;4955911;28;20034;-71
2022/09/24 04:00:43;;;;;;;8.77;4.40;;;18.40;69.10;;;;;;4972749;28;20113;-70
2022/09/24 04:03:10;;;;;;;8.50;3.83;;;18.50;69.60;;;;;;4972557;28;20414;-70
2022/09/24 04:05:36;;;;;;;6.80;3.78;;;18.50;69.30;;;;;;4955272;28;20040;-73
2022/09/24 04:08:04;;;;;;;7.53;3.53;;;18.50;69.40;;;;;;4973625;28;20066;-69
2022/09/24 04:10:30;;;;;;;7.35;3.20;;;18.50;69.00;;;;;;4958871;28;20034;-70
2022/09/24 04:12:55;;;;;;;7.28;3.33;;;18.60;68.90;;;;;;4976425;28;20019;-75
2022/09/24 04:15:24;;;;;;;7.68;3.28;;;18.60;69.00;;;;;;4976167;28;20461;-71
2022/09/24 04:17:56;;;;;;;8.27;3.50;;;18.60;69.20;;;;;;4976641;28;20027;-69
2022/09/24 04:20:25;;;;;;;8.93;3.33;;;18.60;68.70;;;;;;4976123;28;20027;-72
2022/09/24 04:22:56;;;;;;;5.50;3.00;;;18.50;68.50;;;;;;4976894;28;20102;-77
2022/09/24 04:25:24;;;;;;;5.95;3.08;;;18.60;69.20;;;;;;4982554;28;20105;-68
2022/09/24 04:27:58;;;;;;;7.03;3.10;;;18.60;68.70;;;;;;4964941;28;20054;-69
2022/09/24 04:30:28;;;;;;;6.80;3.10;;;18.60;68.50;;;;;;4978297;28;20015;-77
2022/09/24 04:32:54;;;;;;;7.35;2.40;;;18.50;68.60;;;;;;4977736;28;20019;-79
2022/09/24 04:35:23;;;;;;;7.68;2.70;;;18.60;68.60;;;;;;4977646;28;20118;-71
2022/09/24 04:37:49;;;;;;;9.52;2.78;;;18.50;68.60;;;;;;4979209;28;20121;-72
2022/09/24 04:40:16;;;;;;;10.20;3.25;;;18.60;68.90;;;;;;4978715;28;20031;-79
2022/09/24 04:42:45;;;;;;;7.35;2.58;;;18.60;68.50;;;;;;4977892;28;20042;-71
2022/09/24 04:45:12;;;;;;;9.23;2.70;;;18.60;68.60;;;;;;4975933;28;20031;-68
2022/09/24 04:47:39;;;;;;;7.78;2.80;;;18.60;68.70;;;;;;4976070;28;20069;-75
2022/09/24 04:50:08;;;;;;;6.05;3.03;;;18.50;68.50;;;;;;4975736;28;20103;-71
2022/09/24 04:52:35;;;;;;;7.30;2.50;;;18.50;68.60;;;;;;4975563;28;20133;-76
2022/09/24 04:55:01;;;;;;;6.72;2.50;;;18.50;68.90;;;;;;4958097;28;20031;-72
2022/09/24 04:57:28;;;;;;;6.72;2.45;;;18.50;69.10;;;;;;4975666;28;20026;-72
2022/09/24 04:59:54;;;;;;;6.80;2.70;;;18.50;69.10;;;;;;4958111;28;20381;-74
2022/09/24 05:02:20;;;;;;;7.13;2.75;;;18.50;69.00;;;;;;4975654;28;20023;-77
2022/09/24 05:04:46;;;;;;;12.13;3.80;;;18.50;69.00;;;;;;4975442;28;20090;-73
2022/09/24 05:07:12;;;;;;;7.32;3.42;;;18.50;69.00;;;;;;4974852;28;20039;-69
2022/09/24 05:09:37;;;;;;;6.95;2.63;;;18.50;69.10;;;;;;4975172;28;20345;-69
2022/09/24 05:12:04;;;;;;;6.55;3.10;;;18.50;69.00;;;;;;4975131;28;20026;-69
2022/09/24 05:14:30;;;;;;;10.80;2.83;;;18.50;69.00;;;;;;4974840;28;20023;-69
2022/09/24 05:16:59;;;;;;;8.63;2.70;;;18.50;68.90;;;;;;4957517;28;20452;-69
2022/09/24 05:19:27;;;;;;;7.72;2.95;;;18.50;69.00;;;;;;4974624;28;20034;-68
2022/09/24 05:21:53;;;;;;;7.25;2.95;;;18.50;69.30;;;;;;4974977;28;20027;-68
2022/09/24 05:24:21;;;;;;;8.85;2.63;;;18.50;68.80;;;;;;4974730;28;20029;-73
2022/09/24 05:29:31;;;;;;;9.13;3.20;;;18.50;69.00;;;;;;4975406;28;20154;-76
2022/09/24 05:32:01;;;;;;;8.75;3.65;;;18.50;68.70;;;;;;4975945;28;20477;-68
2022/09/24 05:34:29;;;;;;;9.05;3.05;;;18.60;69.00;;;;;;4976169;28;20055;-76
2022/09/24 05:36:58;;;;;;;8.30;3.30;;;18.60;68.80;;;;;;4976380;28;20125;-74
2022/09/24 05:39:24;;;;;;;8.85;3.33;;;18.60;68.20;;;;;;4980274;28;20110;-69
2022/09/24 05:41:50;;;;;;;8.25;3.15;;;18.70;68.30;;;;;;4982959;28;20089;-69
2022/09/24 05:44:20;;;;;;;6.78;2.78;;;18.80;68.30;;;;;;4982489;28;20475;-69
2022/09/24 05:46:49;;;;;;;8.23;2.95;;;18.80;67.90;;;;;;4982495;28;20023;-69
2022/09/24 05:49:15;;;;;;;8.57;2.80;;;18.90;67.80;;;;;;4982399;28;20030;-69
2022/09/24 05:51:41;;;;;;;6.60;2.80;;;19.00;67.70;;;;;;4980590;28;20037;-68
2022/09/24 05:54:07;;;;;;;9.57;2.78;;;19.10;67.50;;;;;;4977634;28;20027;-68
2022/09/24 05:56:33;;;;;;;6.60;2.75;;;19.10;67.20;;;;;;4975867;28;20400;-75
2022/09/24 05:58:59;;;;;;;8.52;2.83;;;19.20;66.70;;;;;;4975058;28;20022;-73
2022/09/24 06:01:28;;;;;;;8.57;3.90;;;19.30;66.50;;;;;;4959318;28;20538;-69
2022/09/24 06:03:55;;;;;;;8.52;3.20;;;19.40;66.00;;;;;;4974971;28;20023;-69
2022/09/24 06:06:21;;;;;;;9.80;3.15;;;19.60;65.50;;;;;;4974595;28;20089;-69
2022/09/24 06:08:47;;;;;;;10.52;3.10;;;19.90;65.90;;;;;;4974755;28;20054;-69
2022/09/24 06:11:13;;;;;;;8.63;2.70;;;20.20;64.20;;;;;;4974841;28;20027;-69
2022/09/24 06:13:39;;;;;;;11.63;3.38;;;20.40;63.90;;;;;;4957182;28;20027;-69
2022/09/24 06:16:11;;;;;;;13.35;2.97;;;20.70;63.20;;;;;;4973880;28;20042;-68
2022/09/24 06:18:39;;;;;;;11.75;3.30;;;20.80;62.80;;;;;;4973945;28;20476;-70
2022/09/24 06:21:07;;;;;;;10.27;2.97;;;21.00;62.20;;;;;;4973848;28;20041;-64
2022/09/24 06:23:36;;;;;;;11.10;2.88;;;21.10;61.90;;;;;;4973761;28;20031;-65
2022/09/24 06:26:06;;;;;;;16.10;3.15;;;21.30;62.70;;;;;;4973629;28;20071;-72
2022/09/24 06:28:33;;;;;;;10.15;2.85;;;21.60;62.20;;;;;;4973852;28;20031;-66
2022/09/24 06:31:00;;;;;;;13.35;4.38;;;21.70;61.70;;;;;;4972880;28;20027;-67
2022/09/24 06:33:26;;;;;;;7.03;2.85;;;21.90;60.30;;;;;;4973769;28;20023;-64
2022/09/24 06:35:52;;;;;;;14.35;3.30;;;22.00;59.90;;;;;;4973321;28;20035;-64
2022/09/24 06:38:18;;;;;;;9.57;3.08;;;22.10;59.90;;;;;;4973287;28;20050;-69
2022/09/24 06:40:45;;;;;;;13.10;2.88;;;22.30;59.50;;;;;;4973265;28;20038;-64
2022/09/24 06:43:14;;;;;;;12.35;3.28;;;22.50;59.10;;;;;;4973120;28;20055;-65
2022/09/24 06:45:43;;;;;;;7.15;3.00;;;22.60;58.70;;;;;;4973273;28;20041;-64
2022/09/24 06:48:11;;;;;;;9.88;3.00;;;22.70;58.20;;;;;;4973251;28;20035;-70
2022/09/24 06:50:40;;;;;;;12.23;3.35;;;22.80;57.90;;;;;;4972986;28;20360;-69
2022/09/24 06:53:07;;;;;;;14.77;4.57;;;23.00;58.10;;;;;;4973014;28;20034;-70
2022/09/24 06:55:34;;;;;;;20.27;6.40;;;23.10;57.80;;;;;;4973141;28;20066;-68
2022/09/24 06:58:12;;;;;;;9.95;3.30;;;23.10;57.50;;;;;;4972895;28;20085;-65
2022/09/24 07:00:39;;;;;;;10.75;3.33;;;23.10;57.60;;;;;;4973015;28;20121;-66
2022/09/24 07:03:06;;;;;;;19.13;3.75;;;23.00;57.10;;;;;;4973171;28;20031;-68
2022/09/24 07:05:33;;;;;;;14.23;4.88;;;22.90;57.70;;;;;;4972758;28;20027;-66
2022/09/24 07:07:59;;;;;;;13.50;3.83;;;22.80;57.90;;;;;;4972757;28;20075;-66
2022/09/24 07:10:26;;;;;;;14.68;3.88;;;22.60;57.60;;;;;;4972571;28;20098;-65
2022/09/24 07:12:52;;;;;;;12.65;3.65;;;22.50;58.20;;;;;;4972874;28;20054;-65
2022/09/24 07:15:18;;;;;;;13.75;3.70;;;22.50;58.10;;;;;;4972789;28;20031;-66
2022/09/24 07:17:44;;;;;;;13.82;3.42;;;22.50;58.20;;;;;;4973899;28;20366;-68
2022/09/24 07:20:10;;;;;;;13.30;3.53;;;22.50;58.00;;;;;;4956426;28;20436;-65
2022/09/24 07:22:42;;;;;;;15.80;3.65;;;22.50;58.00;;;;;;4956620;28;20034;-67
2022/09/24 07:25:11;;;;;;;13.27;3.50;;;22.80;57.00;;;;;;4973892;28;20368;-67
2022/09/24 07:27:38;;;;;;;15.05;4.40;;;22.90;56.80;;;;;;4973866;28;20082;-67
2022/09/24 07:30:07;;;;;;;17.27;4.60;;;23.10;57.50;;;;;;4974171;28;20038;-68
2022/09/24 07:32:33;;;;;;;19.40;8.60;;;23.00;56.10;;;;;;4973819;28;20031;-67
2022/09/24 07:34:59;;;;;;;15.02;6.30;;;23.00;57.70;;;;;;4967582;28;20080;-67
2022/09/24 07:37:24;;;;;;;7.95;2.70;;;23.00;57.20;;;;;;4975594;28;20034;-67
2022/09/24 07:39:50;;;;;;;10.43;3.72;;;23.10;57.10;;;;;;4992754;28;20138;-66
2022/09/24 07:42:16;;;;;;;8.70;2.58;;;23.20;56.60;;;;;;4993271;28;20168;-66
2022/09/24 07:44:42;;;;;;;8.25;2.45;;;23.30;56.10;;;;;;4994347;28;20030;-70
2022/09/24 07:47:08;;;;;;;5.90;2.00;;;23.40;55.30;;;;;;4984847;28;20109;-65
2022/09/24 07:49:35;;;;;;;6.53;1.80;;;23.40;56.20;;;;;;4987847;28;20101;-66
2022/09/24 07:52:01;;;;;;;6.93;1.70;;;23.50;55.60;;;;;;4996449;28;20484;-63
2022/09/24 07:54:28;;;;;;;6.50;2.05;;;23.50;55.90;;;;;;4996688;28;20098;-65
2022/09/24 07:56:54;;;;;;;11.55;2.60;;;23.40;55.80;;;;;;4986826;28;20105;-68
2022/09/24 07:59:20;;;;;;;10.00;3.55;;;23.40;56.20;;;;;;4965354;28;20498;-67
2022/09/24 08:01:46;;;;;;;19.27;3.90;;;23.50;56.30;;;;;;4986411;28;20112;-66
2022/09/24 08:04:12;;;;;;;6.85;2.40;;;23.50;56.30;;;;;;4979697;28;20030;-66
2022/09/24 08:06:37;;;;;;;8.45;2.60;;;23.50;56.20;;;;;;4991723;28;20468;-66
2022/09/24 08:09:04;;;;;;;5.38;2.20;;;23.40;56.30;;;;;;4996104;28;20153;-67
2022/09/24 08:11:29;;;;;;;9.00;1.88;;;23.30;56.10;;;;;;4996222;28;20030;-66
2022/09/24 08:13:59;;;;;;;7.07;2.88;;;23.30;56.40;;;;;;4996127;28;20034;-65
2022/09/24 08:16:25;;;;;;;11.48;3.75;;;23.20;56.40;;;;;;4996191;28;20031;-68
2022/09/24 08:18:53;;;;;;;5.22;2.47;;;23.20;56.70;;;;;;4996383;28;20022;-68
2022/09/24 08:21:19;;;;;;;5.38;2.00;;;23.10;56.20;;;;;;4995899;28;20030;-67
2022/09/24 08:23:45;;;;;;;7.45;2.50;;;23.10;57.00;;;;;;4996361;28;20022;-69
2022/09/24 08:26:12;;;;;;;6.93;2.70;;;23.10;57.00;;;;;;4996714;28;20587;-76
2022/09/24 08:28:40;;;;;;;13.95;6.22;;;23.10;57.00;;;;;;4992336;28;20503;-67
2022/09/24 08:31:10;;;;;;;12.50;5.88;;;23.10;57.10;;;;;;4976734;28;20054;-69
2022/09/24 08:33:36;;;;;;;7.40;2.33;;;23.10;57.20;;;;;;4976602;28;20019;-69
2022/09/24 08:36:04;;;;;;;9.23;2.45;;;23.10;56.90;;;;;;4976156;28;20085;-67
2022/09/24 08:38:30;;;;;;;9.68;3.42;;;23.10;56.60;;;;;;4976742;28;20022;-67
2022/09/24 08:41:05;;;;;;;8.50;2.72;;;23.10;56.50;;;;;;4976405;28;20029;-69
2022/09/24 08:43:51;;;;;;;4.25;1.73;;;23.10;56.30;;;;;;4976336;28;20418;-70
2022/09/24 08:49:39;;;;;;;9.88;3.33;;;23.10;55.40;;;;;;4984328;28;20061;-67
2022/09/24 08:52:35;;;;;;;5.90;1.80;;;23.10;55.00;;;;;;4976513;28;20114;-68
2022/09/24 08:55:09;;;;;;;6.57;2.75;;;23.20;56.10;;;;;;4982847;28;20038;-67
2022/09/24 08:58:13;;;;;;;4.35;2.00;;;23.10;55.50;;;;;;4979144;28;20030;-70
2022/09/24 09:00:48;;;;;;;7.40;2.25;;;23.20;54.90;;;;;;4967433;28;20428;-67
2022/09/24 09:03:34;;;;;;;6.82;2.38;;;23.30;55.30;;;;;;4995366;28;20506;-66
2022/09/24 09:06:08;;;;;;;6.63;2.15;;;23.30;54.50;;;;;;4995360;28;20030;-64
2022/09/24 09:08:54;;;;;;;9.73;2.55;;;23.30;55.40;;;;;;4995329;28;20120;-66
2022/09/24 09:11:23;;;;;;;6.60;2.40;;;23.40;54.20;;;;;;4995022;28;20487;-68
2022/09/24 09:14:02;;;;;;;5.80;2.30;;;23.40;55.30;;;;;;4994943;28;20446;-70
2022/09/24 09:16:35;;;;;;;4.93;1.88;;;23.40;54.30;;;;;;4977366;28;20132;-67
2022/09/24 09:19:08;;;;;;;;;;;23.40;55.20;;;;;;4992460;28;20022;-66
2022/09/24 09:21:40;;;;;;;4.53;2.00;;;23.50;53.80;;;;;;4990482;28;19914;-70
2022/09/24 09:24:33;;;;;;;8.13;2.93;;;23.50;55.10;;;;;;4975399;28;20031;-72
2022/09/24 09:27:00;;;;;;;7.17;2.20;;;23.60;54.80;;;;;;4968073;28;20113;-73
2022/09/24 09:29:27;;;;;;;9.73;2.53;;;23.70;54.70;;;;;;4975475;28;20030;-76
2022/09/24 09:32:18;;;;;;;6.28;2.33;;;23.80;54.40;;;;;;4975632;28;20042;-72
2022/09/24 09:34:59;;;;;;;5.78;1.90;;;23.90;53.60;;;;;;4975441;28;20030;-72
2022/09/24 09:38:04;;;;;;;5.90;1.90;;;23.90;53.40;;;;;;4975620;28;20112;-68
2022/09/24 09:40:38;;;;;;;9.32;2.67;;;24.00;53.20;;;;;;4975338;28;20031;-74
2022/09/24 09:43:09;;;;;;;5.18;1.98;;;24.00;53.00;;;;;;4975593;28;20031;-70
2022/09/24 09:46:14;;;;;;;6.82;2.15;;;24.10;54.00;;;;;;4975348;28;20117;-70
2022/09/24 09:48:47;;;;;;;6.80;2.00;;;24.10;52.80;;;;;;4958199;28;20493;-68
2022/09/24 09:51:19;;;;;;;10.07;2.70;;;24.10;53.90;;;;;;4975199;28;20504;-68
2022/09/24 09:53:59;;;;;;;7.32;2.30;;;24.10;53.80;;;;;;4974932;28;20429;-66
2022/09/24 09:56:37;;;;;;;4.45;2.15;;;24.10;52.80;;;;;;4974914;28;20038;-66
2022/09/24 09:59:11;;;;;;;9.45;3.03;;;24.10;53.70;;;;;;4974830;28;20023;-66
2022/09/24 10:01:42;;;;;;;7.85;3.00;;;24.10;53.50;;;;;;4974828;28;20030;-66
2022/09/24 10:04:35;;;;;;;9.07;3.80;;;24.20;53.40;;;;;;4974768;28;20031;-67
2022/09/24 10:07:09;;;;;;;10.32;3.60;;;24.20;53.00;;;;;;4973830;28;20050;-66
2022/09/24 10:09:37;;;;;;;13.48;9.10;;;24.30;53.50;;;;;;4975224;28;20110;-65
2022/09/24 10:12:29;;;;;;;7.20;2.38;;;24.30;53.50;;;;;;4974614;28;20049;-66
2022/09/24 10:15:15;;;;;;;5.43;2.17;;;24.30;53.00;;;;;;4970910;28;20050;-66
2022/09/24 10:17:43;;;;;;;7.93;2.40;;;24.30;53.00;;;;;;4974470;28;20501;-66
2022/09/24 10:20:26;;;;;;;6.13;2.05;;;24.30;53.20;;;;;;4957361;28;20027;-67
2022/09/24 10:22:56;;;;;;;4.53;2.20;;;24.40;52.50;;;;;;4974848;28;20030;-66
2022/09/24 10:25:27;;;;;;;4.93;2.38;;;24.40;53.10;;;;;;4974544;28;20031;-66
2022/09/24 10:30:53;;;;;;;6.20;2.10;;;24.50;52.60;;;;;;4974853;28;20388;-65
2022/09/24 10:33:19;;;;;;;5.40;2.20;;;24.50;53.20;;;;;;4974231;28;20122;-66
2022/09/24 10:35:45;;;;;;;6.93;2.45;;;24.50;53.10;;;;;;4974107;28;20077;-65
2022/09/24 10:38:20;;;;;;;6.22;1.83;;;24.50;53.10;;;;;;4956648;28;20118;-67
2022/09/24 10:40:46;;;;;;;7.03;2.10;;;24.40;52.20;;;;;;4956625;28;20030;-67
2022/09/24 10:43:18;;;;;;;4.00;1.92;;;24.40;52.80;;;;;;4974130;28;20027;-65
2022/09/24 10:46:06;;;;;;;11.70;2.10;;;24.40;53.00;;;;;;4974164;28;20074;-67
2022/09/24 10:48:48;;;;;;;4.97;1.92;;;24.40;52.80;;;;;;4974076;28;20165;-68
2022/09/24 10:51:25;;;;;;;10.40;2.55;;;24.40;52.30;;;;;;4974171;28;20030;-66
2022/09/24 10:54:12;;;;;;;8.35;2.15;;;24.40;53.00;;;;;;4974157;28;20114;-68
2022/09/24 10:56:42;;;;;;;10.48;2.47;;;24.30;52.20;;;;;;4974177;28;20472;-68
2022/09/24 10:59:26;;;;;;;6.45;1.90;;;24.30;52.80;;;;;;4956922;28;20345;-69
2022/09/24 11:02:20;;;;;;;7.25;2.10;;;24.20;52.90;;;;;;4974001;28;20062;-67
2022/09/24 11:04:57;;;;;;;5.35;1.90;;;24.10;52.00;;;;;;4973744;28;20480;-66
2022/09/24 11:07:41;;;;;;;7.47;2.20;;;24.00;52.00;;;;;;4973820;28;20046;-68
2022/09/24 11:10:38;;;;;;;8.13;2.00;;;24.00;52.00;;;;;;4974304;28;20082;-68
2022/09/24 11:13:14;;;;;;;4.28;1.90;;;24.00;51.90;;;;;;4973727;28;20091;-69
2022/09/24 11:16:16;;;;;;;8.50;2.28;;;23.90;52.70;;;;;;4973459;28;20043;-68
2022/09/24 11:19:00;;;;;;;5.35;2.10;;;23.90;52.30;;;;;;4973350;28;20046;-67
2022/09/24 11:21:43;;;;;;;6.40;1.88;;;23.90;52.50;;;;;;4973496;28;20038;-67
2022/09/24 11:24:26;;;;;;;5.75;2.10;;;23.90;52.60;;;;;;4955819;28;20023;-69
2022/09/24 11:27:37;;;;;;;6.18;2.22;;;23.90;52.00;;;;;;4956094;28;20380;-67
2022/09/24 11:30:46;;;;;;;7.28;1.95;;;23.90;51.70;;;;;;4973401;28;20376;-67
2022/09/24 11:33:51;;;;;;;7.38;1.83;;;23.80;51.10;;;;;;4933282;28;20182;-68
2022/09/24 11:36:28;;;;;;;5.82;2.10;;;23.90;51.10;;;;;;4955646;28;20400;-67
2022/09/24 11:39:23;;;;;;;8.23;2.15;;;23.90;50.50;;;;;;4973156;28;20440;-69
2022/09/24 11:42:03;;;;;;;7.25;2.17;;;23.90;51.00;;;;;;4973103;28;20501;-69
2022/09/24 11:44:56;;;;;;;4.72;2.15;;;23.90;51.70;;;;;;4972811;28;20109;-69
2022/09/24 11:47:50;;;;;;;6.47;2.40;;;23.90;50.70;;;;;;4973090;28;20098;-66
2022/09/24 11:50:28;;;;;;;;;;;23.90;50.70;;;;;;4973580;28;20035;-65
2022/09/24 11:53:33;;;;;;;6.18;2.00;;;23.90;50.60;;;;;;4973306;28;19919;-69
2022/09/24 11:56:04;;;;;;;6.97;2.30;;;23.90;51.70;;;;;;4933559;28;20055;-70
2022/09/24 11:58:57;;;;;;;9.38;2.03;;;23.90;51.50;;;;;;4973644;28;20027;-70
2022/09/24 12:01:31;;;;;;;4.88;2.17;;;23.90;50.40;;;;;;4938292;28;20035;-69
2022/09/24 12:04:10;;;;;;;4.05;1.77;;;23.90;51.10;;;;;;4973354;28;20409;-69
2022/09/24 12:06:51;;;;;;;5.60;2.58;;;23.90;50.30;;;;;;4983205;28;20038;-69
2022/09/24 12:09:38;;;;;;;7.57;1.90;;;23.90;51.10;;;;;;4961193;28;20041;-70
2022/09/24 12:12:07;;;;;;;7.25;2.03;;;23.90;50.00;;;;;;4973085;28;20034;-69
2022/09/24 12:14:58;;;;;;;6.65;2.20;;;24.00;50.80;;;;;;4972582;28;20030;-72
2022/09/24 12:17:46;;;;;;;6.65;2.20;;;24.00;49.80;;;;;;4973404;28;20440;-70
2022/09/24 12:20:27;;;;;;;5.38;1.95;;;24.00;49.70;;;;;;4972970;28;20054;-69
2022/09/24 12:23:02;;;;;;;8.15;2.30;;;24.10;49.60;;;;;;4972740;28;20041;-71
2022/09/24 12:25:38;;;;;;;6.18;1.90;;;24.10;49.20;;;;;;4972981;28;20027;-68
2022/09/24 12:28:04;;;;;;;5.28;2.30;;;24.20;50.60;;;;;;4972865;28;20051;-68
2022/09/24 12:33:34;;;;;;;6.03;1.80;;;24.30;49.60;;;;;;4957382;28;20448;-71
2022/09/24 12:36:04;;;;;;;7.15;2.33;;;24.40;49.30;;;;;;4976004;28;20043;-67
2022/09/24 12:38:44;;;;;;;8.40;1.80;;;24.50;49.20;;;;;;4976460;28;20049;-71
2022/09/24 12:41:32;;;;;;;6.30;1.90;;;24.70;48.00;;;;;;4976119;28;20030;-69
2022/09/24 12:44:01;;;;;;;7.63;1.70;;;24.80;47.60;;;;;;4976620;28;20050;-72
2022/09/24 12:46:33;;;;;;;5.93;1.60;;;24.80;48.50;;;;;;4976765;28;20054;-71
2022/09/24 12:49:00;;;;;;;4.95;1.50;;;24.90;47.20;;;;;;4994969;28;20105;-70
2022/09/24 12:51:35;;;;;;;20.13;3.40;;;25.00;48.10;;;;;;4995245;28;20106;-68
2022/09/24 12:54:23;;;;;;;10.32;2.40;;;25.10;48.00;;;;;;4995137;28;20019;-75
2022/09/24 12:56:49;;;;;;;15.07;9.02;;;25.10;47.90;;;;;;4991319;28;20031;-72
2022/09/24 12:59:27;;;;;;;7.05;1.60;;;25.00;47.20;;;;;;4975884;28;20071;-70
2022/09/24 13:01:54;;;;;;;9.38;1.67;;;25.00;46.40;;;;;;4984167;28;20030;-67
2022/09/24 13:04:20;;;;;;;6.15;1.50;;;25.00;47.70;;;;;;4976794;28;20480;-69
2022/09/24 13:06:48;;;;;;;5.53;1.65;;;24.90;47.10;;;;;;4976330;28;20448;-76
2022/09/24 13:09:40;;;;;;;4.82;1.40;;;24.90;46.70;;;;;;4976049;28;20039;-74
2022/09/24 13:12:23;;;;;;;7.05;1.63;;;24.90;47.90;;;;;;4975936;28;20480;-72
2022/09/24 13:15:03;;;;;;;3.37;1.47;;;24.90;47.70;;;;;;4975226;28;20105;-72
2022/09/24 13:17:33;;;;;;;7.25;1.90;;;24.80;46.90;;;;;;4975799;28;20357;-69
2022/09/24 13:20:27;;;;;;;5.55;1.70;;;24.80;47.60;;;;;;4976097;28;20074;-77
2022/09/24 13:23:30;;;;;;;4.13;1.63;;;24.80;47.80;;;;;;4985496;28;20026;-71
2022/09/24 13:26:03;;;;;;;4.35;1.58;;;24.80;46.50;;;;;;4972557;28;20026;-69
2022/09/24 13:28:57;;;;;;;6.50;1.52;;;24.80;46.50;;;;;;4994859;28;20034;-70